sensor_id;sensor_type;location;lat;lon;timestamp;P1;durP1;ratioP1;P2;durP2;ratioP2
11135;SDS011;5622;50.840;4.948;2023-08-08T06:04:17;12.13;;;4.23;;
11135;SDS011;5622;50.840;4.948;2023-08-08T06:06:46;6.87;;;3.77;;
11135;SDS011;5622;50.840;4.948;2023-08-08T06:09:15;11.33;;;4.40;;
11135;SDS011;5622;50.840;4.948;2023-08-08T06:11:43;11.60;;;4.10;;
11135;SDS011;5622;50.840;4.948;2023-08-08T06:14:10;11.57;;;4.30;;
11135;SDS011;5622;50.840;4.948;2023-08-08T06:16:39;10.70;;;4.90;;
11135;SDS011;5622;50.840;4.948;2023-08-08T06:19:07;11.17;;;4.27;;
11135;SDS011;5622;50.840;4.948;2023-08-08T06:21:43;9.50;;;4.47;;
11135;SDS011;5622;50.840;4.948;2023-08-08T06:24:11;13.17;;;4.97;;
11135;SDS011;5622;50.840;4.948;2023-08-08T06:26:44;15.53;;;4.80;;
11135;SDS011;5622;50.840;4.948;2023-08-08T06:29:14;10.63;;;4.97;;
11135;SDS011;5622;50.840;4.948;2023-08-08T06:31:43;13.20;;;5.27;;
11135;SDS011;5622;50.840;4.948;2023-08-08T06:34:14;13.20;;;5.03;;
11135;SDS011;5622;50.840;4.948;2023-08-08T06:36:42;10.77;;;4.77;;
11135;SDS011;5622;50.840;4.948;2023-08-08T06:39:12;15.47;;;5.07;;
11135;SDS011;5622;50.840;4.948;2023-08-08T06:41:40;12.97;;;4.90;;
11135;SDS011;5622;50.840;4.948;2023-08-08T06:44:07;15.37;;;5.17;;
11135;SDS011;5622;50.840;4.948;2023-08-08T06:46:35;11.50;;;5.03;;
11135;SDS011;5622;50.840;4.948;2023-08-08T06:49:05;10.17;;;4.50;;
11135;SDS011;5622;50.840;4.948;2023-08-08T06:51:34;12.30;;;4.80;;
11135;SDS011;5622;50.840;4.948;2023-08-08T06:54:04;12.23;;;5.23;;
11135;SDS011;5622;50.840;4.948;2023-08-08T06:56:33;9.97;;;5.10;;
11135;SDS011;5622;50.840;4.948;2023-08-08T06:59:02;9.43;;;4.40;;
11135;SDS011;5622;50.840;4.948;2023-08-08T07:01:33;8.57;;;4.60;;
11135;SDS011;5622;50.840;4.948;2023-08-08T07:04:03;10.23;;;4.83;;
11135;SDS011;5622;50.840;4.948;2023-08-08T07:06:32;6.13;;;4.00;;
11135;SDS011;5622;50.840;4.948;2023-08-08T07:09:01;13.47;;;4.33;;
11135;SDS011;5622;50.840;4.948;2023-08-08T07:11:35;10.37;;;4.80;;
11135;SDS011;5622;50.840;4.948;2023-08-08T07:14:05;11.83;;;4.47;;
11135;SDS011;5622;50.840;4.948;2023-08-08T07:16:33;11.07;;;4.20;;
11135;SDS011;5622;50.840;4.948;2023-08-08T07:19:00;6.97;;;4.00;;
11135;SDS011;5622;50.840;4.948;2023-08-08T07:21:28;12.40;;;4.13;;
11135;SDS011;5622;50.840;4.948;2023-08-08T07:23:56;11.57;;;4.10;;
11135;SDS011;5622;50.840;4.948;2023-08-08T07:26:25;9.57;;;3.80;;
11135;SDS011;5622;50.840;4.948;2023-08-08T07:28:53;8.33;;;3.53;;
11135;SDS011;5622;50.840;4.948;2023-08-08T07:31:23;6.17;;;3.50;;
11135;SDS011;5622;50.840;4.948;2023-08-08T07:33:52;7.50;;;3.60;;
11135;SDS011;5622;50.840;4.948;2023-08-08T07:36:19;7.77;;;3.37;;
11135;SDS011;5622;50.840;4.948;2023-08-08T07:38:47;9.97;;;3.33;;
11135;SDS011;5622;50.840;4.948;2023-08-08T07:41:15;5.57;;;3.50;;
11135;SDS011;5622;50.840;4.948;2023-08-08T07:43:45;10.23;;;3.00;;
11135;SDS011;5622;50.840;4.948;2023-08-08T07:46:15;9.17;;;3.20;;
11135;SDS011;5622;50.840;4.948;2023-08-08T07:48:46;10.43;;;3.27;;
11135;SDS011;5622;50.840;4.948;2023-08-08T08:04:39;12.33;;;3.80;;
11135;SDS011;5622;50.840;4.948;2023-08-08T08:07:11;7.07;;;3.27;;
11135;SDS011;5622;50.840;4.948;2023-08-08T08:09:39;8.87;;;3.50;;
11135;SDS011;5622;50.840;4.948;2023-08-08T08:12:08;6.23;;;2.77;;
11135;SDS011;5622;50.840;4.948;2023-08-08T08:14:36;6.80;;;2.90;;
11135;SDS011;5622;50.840;4.948;2023-08-08T08:17:06;8.83;;;3.10;;
11135;SDS011;5622;50.840;4.948;2023-08-08T08:24:44;6.10;;;2.73;;
11135;SDS011;5622;50.840;4.948;2023-08-08T08:27:15;5.83;;;2.83;;
11135;SDS011;5622;50.840;4.948;2023-08-08T08:29:54;6.23;;;2.83;;
11135;SDS011;5622;50.840;4.948;2023-08-08T08:32:23;6.53;;;3.00;;
11135;SDS011;5622;50.840;4.948;2023-08-08T08:34:55;7.90;;;2.70;;
11135;SDS011;5622;50.840;4.948;2023-08-08T08:37:29;7.57;;;3.03;;
11135;SDS011;5622;50.840;4.948;2023-08-08T08:40:01;11.40;;;3.17;;
11135;SDS011;5622;50.840;4.948;2023-08-08T08:42:34;8.53;;;2.67;;
11135;SDS011;5622;50.840;4.948;2023-08-08T08:45:06;10.67;;;2.87;;
11135;SDS011;5622;50.840;4.948;2023-08-08T08:47:46;5.43;;;2.70;;
11135;SDS011;5622;50.840;4.948;2023-08-08T08:50:21;6.83;;;2.90;;
11135;SDS011;5622;50.840;4.948;2023-08-08T08:52:53;5.07;;;2.50;;
11135;SDS011;5622;50.840;4.948;2023-08-08T08:55:26;5.63;;;2.60;;
11135;SDS011;5622;50.840;4.948;2023-08-08T08:57:57;6.00;;;3.00;;
11135;SDS011;5622;50.840;4.948;2023-08-08T09:00:25;9.73;;;2.80;;
11135;SDS011;5622;50.840;4.948;2023-08-08T09:02:55;7.13;;;2.53;;
11135;SDS011;5622;50.840;4.948;2023-08-08T09:05:23;6.97;;;3.03;;
11135;SDS011;5622;50.840;4.948;2023-08-08T09:11:16;7.43;;;2.97;;
11135;SDS011;5622;50.840;4.948;2023-08-08T09:13:47;8.73;;;3.00;;
11135;SDS011;5622;50.840;4.948;2023-08-08T09:16:15;5.87;;;2.80;;
11135;SDS011;5622;50.840;4.948;2023-08-08T09:18:44;4.50;;;2.93;;
11135;SDS011;5622;50.840;4.948;2023-08-08T09:21:12;6.00;;;2.93;;
11135;SDS011;5622;50.840;4.948;2023-08-08T09:23:41;5.83;;;3.07;;
11135;SDS011;5622;50.840;4.948;2023-08-08T09:26:12;8.67;;;3.07;;
11135;SDS011;5622;50.840;4.948;2023-08-08T09:28:43;9.73;;;3.40;;
11135;SDS011;5622;50.840;4.948;2023-08-08T09:31:11;6.13;;;2.80;;
11135;SDS011;5622;50.840;4.948;2023-08-08T09:33:39;7.43;;;2.73;;
11135;SDS011;5622;50.840;4.948;2023-08-08T09:36:08;6.07;;;3.70;;
11135;SDS011;5622;50.840;4.948;2023-08-08T09:38:43;7.03;;;2.83;;
11135;SDS011;5622;50.840;4.948;2023-08-08T09:41:12;9.03;;;2.70;;
11135;SDS011;5622;50.840;4.948;2023-08-08T09:43:42;5.43;;;2.80;;
11135;SDS011;5622;50.840;4.948;2023-08-08T09:46:15;7.27;;;2.97;;
11135;SDS011;5622;50.840;4.948;2023-08-08T09:48:42;7.33;;;2.87;;
11135;SDS011;5622;50.840;4.948;2023-08-08T09:51:12;7.77;;;2.57;;
11135;SDS011;5622;50.840;4.948;2023-08-08T09:53:43;6.60;;;2.37;;
11135;SDS011;5622;50.840;4.948;2023-08-08T09:56:12;6.57;;;2.37;;
11135;SDS011;5622;50.840;4.948;2023-08-08T09:58:42;4.40;;;2.10;;
11135;SDS011;5622;50.840;4.948;2023-08-08T10:01:10;6.70;;;2.53;;
11135;SDS011;5622;50.840;4.948;2023-08-08T10:03:38;4.80;;;2.67;;
11135;SDS011;5622;50.840;4.948;2023-08-08T10:06:08;4.90;;;2.70;;
11135;SDS011;5622;50.840;4.948;2023-08-08T10:08:37;4.97;;;2.50;;
11135;SDS011;5622;50.840;4.948;2023-08-08T10:11:04;9.23;;;2.63;;
11135;SDS011;5622;50.840;4.948;2023-08-08T10:13:34;7.17;;;2.60;;
11135;SDS011;5622;50.840;4.948;2023-08-08T10:16:03;6.07;;;2.70;;
11135;SDS011;5622;50.840;4.948;2023-08-08T10:18:34;5.23;;;2.63;;
11135;SDS011;5622;50.840;4.948;2023-08-08T10:21:03;7.53;;;2.47;;
11135;SDS011;5622;50.840;4.948;2023-08-08T10:23:39;4.40;;;2.23;;
11135;SDS011;5622;50.840;4.948;2023-08-08T10:26:18;5.63;;;2.40;;
11135;SDS011;5622;50.840;4.948;2023-08-08T10:28:55;5.80;;;2.73;;
11135;SDS011;5622;50.840;4.948;2023-08-08T10:31:23;4.30;;;2.30;;
11135;SDS011;5622;50.840;4.948;2023-08-08T10:34:00;6.73;;;2.53;;
11135;SDS011;5622;50.840;4.948;2023-08-08T10:36:42;7.03;;;2.57;;
11135;SDS011;5622;50.840;4.948;2023-08-08T10:39:12;5.77;;;2.77;;
11135;SDS011;5622;50.840;4.948;2023-08-08T10:41:46;3.50;;;2.60;;
11135;SDS011;5622;50.840;4.948;2023-08-08T10:44:20;3.00;;;2.37;;
11135;SDS011;5622;50.840;4.948;2023-08-08T10:46:50;7.10;;;2.73;;
11135;SDS011;5622;50.840;4.948;2023-08-08T10:49:19;5.93;;;2.63;;
11135;SDS011;5622;50.840;4.948;2023-08-08T10:51:48;6.83;;;2.87;;
11135;SDS011;5622;50.840;4.948;2023-08-08T10:54:18;4.27;;;2.80;;
11135;SDS011;5622;50.840;4.948;2023-08-08T10:56:48;5.20;;;2.77;;
11135;SDS011;5622;50.840;4.948;2023-08-08T10:59:17;6.73;;;2.40;;
11135;SDS011;5622;50.840;4.948;2023-08-08T11:01:46;7.17;;;2.93;;
11135;SDS011;5622;50.840;4.948;2023-08-08T11:04:15;5.67;;;2.50;;
11135;SDS011;5622;50.840;4.948;2023-08-08T11:06:44;5.47;;;2.17;;
11135;SDS011;5622;50.840;4.948;2023-08-08T11:09:15;6.27;;;2.53;;
11135;SDS011;5622;50.840;4.948;2023-08-08T11:11:44;7.63;;;2.77;;
11135;SDS011;5622;50.840;4.948;2023-08-08T11:14:13;3.90;;;2.43;;
11135;SDS011;5622;50.840;4.948;2023-08-08T11:16:41;7.20;;;2.57;;
11135;SDS011;5622;50.840;4.948;2023-08-08T11:19:10;6.03;;;2.43;;
11135;SDS011;5622;50.840;4.948;2023-08-08T11:21:39;5.93;;;2.57;;
11135;SDS011;5622;50.840;4.948;2023-08-08T11:24:08;4.90;;;2.33;;
11135;SDS011;5622;50.840;4.948;2023-08-08T11:26:39;7.07;;;2.70;;
11135;SDS011;5622;50.840;4.948;2023-08-08T11:29:07;4.33;;;2.33;;
11135;SDS011;5622;50.840;4.948;2023-08-08T11:31:35;6.03;;;2.20;;
11135;SDS011;5622;50.840;4.948;2023-08-08T11:34:03;7.03;;;2.63;;
11135;SDS011;5622;50.840;4.948;2023-08-08T11:36:31;5.77;;;2.27;;
11135;SDS011;5622;50.840;4.948;2023-08-08T11:39:00;4.27;;;2.17;;
11135;SDS011;5622;50.840;4.948;2023-08-08T11:41:32;5.90;;;2.20;;
11135;SDS011;5622;50.840;4.948;2023-08-08T11:44:03;5.57;;;2.17;;
11135;SDS011;5622;50.840;4.948;2023-08-08T11:46:31;6.40;;;2.17;;
11135;SDS011;5622;50.840;4.948;2023-08-08T11:49:03;9.03;;;2.43;;
11135;SDS011;5622;50.840;4.948;2023-08-08T11:51:31;3.77;;;2.03;;
11135;SDS011;5622;50.840;4.948;2023-08-08T11:54:00;5.33;;;2.20;;
11135;SDS011;5622;50.840;4.948;2023-08-08T11:56:28;3.10;;;2.00;;
11135;SDS011;5622;50.840;4.948;2023-08-08T11:58:56;4.90;;;1.93;;
11135;SDS011;5622;50.840;4.948;2023-08-08T12:01:26;6.27;;;2.60;;
11135;SDS011;5622;50.840;4.948;2023-08-08T12:04:04;5.30;;;2.40;;
11135;SDS011;5622;50.840;4.948;2023-08-08T12:06:32;7.47;;;2.70;;
11135;SDS011;5622;50.840;4.948;2023-08-08T12:09:04;4.10;;;2.20;;
11135;SDS011;5622;50.840;4.948;2023-08-08T12:11:34;6.07;;;2.77;;
11135;SDS011;5622;50.840;4.948;2023-08-08T12:14:06;4.50;;;2.07;;
11135;SDS011;5622;50.840;4.948;2023-08-08T12:16:37;4.57;;;2.63;;
11135;SDS011;5622;50.840;4.948;2023-08-08T12:19:06;6.03;;;2.20;;
11135;SDS011;5622;50.840;4.948;2023-08-08T12:21:36;4.43;;;2.43;;
11135;SDS011;5622;50.840;4.948;2023-08-08T12:24:03;5.67;;;2.50;;
11135;SDS011;5622;50.840;4.948;2023-08-08T12:26:37;4.30;;;2.47;;
11135;SDS011;5622;50.840;4.948;2023-08-08T12:29:04;3.10;;;1.80;;
11135;SDS011;5622;50.840;4.948;2023-08-08T12:31:32;4.70;;;2.00;;
11135;SDS011;5622;50.840;4.948;2023-08-08T12:34:01;3.00;;;1.83;;
11135;SDS011;5622;50.840;4.948;2023-08-08T12:36:28;4.80;;;2.70;;
11135;SDS011;5622;50.840;4.948;2023-08-08T12:38:56;6.47;;;2.17;;
11135;SDS011;5622;50.840;4.948;2023-08-08T12:41:24;5.33;;;2.53;;
11135;SDS011;5622;50.840;4.948;2023-08-08T12:43:51;2.83;;;1.67;;
11135;SDS011;5622;50.840;4.948;2023-08-08T12:46:19;1.60;;;1.50;;
11135;SDS011;5622;50.840;4.948;2023-08-08T12:48:48;2.83;;;2.00;;
11135;SDS011;5622;50.840;4.948;2023-08-08T12:51:18;4.53;;;1.87;;
11135;SDS011;5622;50.840;4.948;2023-08-08T12:53:51;6.27;;;2.57;;
11135;SDS011;5622;50.840;4.948;2023-08-08T12:56:22;3.70;;;2.00;;
11135;SDS011;5622;50.840;4.948;2023-08-08T12:58:49;4.27;;;2.13;;
11135;SDS011;5622;50.840;4.948;2023-08-08T13:01:17;5.27;;;1.70;;
11135;SDS011;5622;50.840;4.948;2023-08-08T13:03:44;2.40;;;1.80;;
11135;SDS011;5622;50.840;4.948;2023-08-08T13:06:12;3.10;;;1.90;;
11135;SDS011;5622;50.840;4.948;2023-08-08T13:08:40;4.00;;;1.80;;
11135;SDS011;5622;50.840;4.948;2023-08-08T13:11:10;5.53;;;2.10;;
11135;SDS011;5622;50.840;4.948;2023-08-08T13:13:37;2.90;;;1.70;;
11135;SDS011;5622;50.840;4.948;2023-08-08T13:16:06;2.70;;;1.90;;
11135;SDS011;5622;50.840;4.948;2023-08-08T13:18:34;3.27;;;1.83;;
11135;SDS011;5622;50.840;4.948;2023-08-08T13:21:01;3.50;;;2.03;;
11135;SDS011;5622;50.840;4.948;2023-08-08T13:23:28;5.80;;;1.90;;
11135;SDS011;5622;50.840;4.948;2023-08-08T13:26:00;2.83;;;2.03;;
11135;SDS011;5622;50.840;4.948;2023-08-08T13:28:31;5.33;;;1.90;;
11135;SDS011;5622;50.840;4.948;2023-08-08T13:30:58;3.53;;;1.83;;
11135;SDS011;5622;50.840;4.948;2023-08-08T13:33:26;4.27;;;1.97;;
11135;SDS011;5622;50.840;4.948;2023-08-08T13:35:55;4.07;;;2.03;;
11135;SDS011;5622;50.840;4.948;2023-08-08T13:38:25;3.20;;;1.80;;
11135;SDS011;5622;50.840;4.948;2023-08-08T13:40:52;3.73;;;2.13;;
11135;SDS011;5622;50.840;4.948;2023-08-08T13:43:22;5.37;;;2.60;;
11135;SDS011;5622;50.840;4.948;2023-08-08T13:45:53;2.40;;;1.70;;
11135;SDS011;5622;50.840;4.948;2023-08-08T13:48:21;2.00;;;1.77;;
11135;SDS011;5622;50.840;4.948;2023-08-08T13:50:49;2.43;;;1.80;;
11135;SDS011;5622;50.840;4.948;2023-08-08T13:53:16;3.03;;;1.80;;
11135;SDS011;5622;50.840;4.948;2023-08-08T13:55:46;3.93;;;1.90;;
11135;SDS011;5622;50.840;4.948;2023-08-08T13:58:14;7.10;;;2.20;;
11135;SDS011;5622;50.840;4.948;2023-08-08T14:00:42;3.03;;;1.70;;
11135;SDS011;5622;50.840;4.948;2023-08-08T14:03:11;3.77;;;1.97;;
11135;SDS011;5622;50.840;4.948;2023-08-08T14:05:39;2.80;;;1.93;;
11135;SDS011;5622;50.840;4.948;2023-08-08T14:08:06;3.80;;;1.80;;
11135;SDS011;5622;50.840;4.948;2023-08-08T14:10:37;5.00;;;2.03;;
11135;SDS011;5622;50.840;4.948;2023-08-08T14:13:09;2.10;;;1.70;;
11135;SDS011;5622;50.840;4.948;2023-08-08T14:15:36;3.30;;;1.70;;
11135;SDS011;5622;50.840;4.948;2023-08-08T14:18:07;3.37;;;1.77;;
11135;SDS011;5622;50.840;4.948;2023-08-08T14:20:35;2.17;;;1.63;;
11135;SDS011;5622;50.840;4.948;2023-08-08T14:23:03;4.73;;;2.23;;
11135;SDS011;5622;50.840;4.948;2023-08-08T14:25:30;3.40;;;1.83;;
11135;SDS011;5622;50.840;4.948;2023-08-08T14:27:58;3.10;;;1.90;;
11135;SDS011;5622;50.840;4.948;2023-08-08T14:30:27;2.67;;;1.80;;
11135;SDS011;5622;50.840;4.948;2023-08-08T14:32:56;3.13;;;1.63;;
11135;SDS011;5622;50.840;4.948;2023-08-08T14:35:30;2.80;;;1.70;;
11135;SDS011;5622;50.840;4.948;2023-08-08T14:37:57;2.20;;;1.63;;
11135;SDS011;5622;50.840;4.948;2023-08-08T14:40:26;2.40;;;1.90;;
11135;SDS011;5622;50.840;4.948;2023-08-08T14:42:54;2.37;;;1.67;;
11135;SDS011;5622;50.840;4.948;2023-08-08T14:45:22;1.83;;;1.60;;
11135;SDS011;5622;50.840;4.948;2023-08-08T14:47:49;3.60;;;1.70;;
11135;SDS011;5622;50.840;4.948;2023-08-08T14:50:22;2.60;;;1.83;;
11135;SDS011;5622;50.840;4.948;2023-08-08T14:52:54;4.77;;;1.97;;
11135;SDS011;5622;50.840;4.948;2023-08-08T14:55:21;3.60;;;2.00;;
11135;SDS011;5622;50.840;4.948;2023-08-08T14:57:49;4.40;;;1.93;;
11135;SDS011;5622;50.840;4.948;2023-08-08T15:00:16;3.97;;;1.70;;
11135;SDS011;5622;50.840;4.948;2023-08-08T15:02:44;3.90;;;1.70;;
11135;SDS011;5622;50.840;4.948;2023-08-08T15:05:11;1.97;;;1.53;;
11135;SDS011;5622;50.840;4.948;2023-08-08T15:07:39;1.60;;;1.50;;
11135;SDS011;5622;50.840;4.948;2023-08-08T15:10:08;1.83;;;1.70;;
11135;SDS011;5622;50.840;4.948;2023-08-08T15:12:36;1.97;;;1.43;;
11135;SDS011;5622;50.840;4.948;2023-08-08T15:15:05;2.23;;;1.60;;
11135;SDS011;5622;50.840;4.948;2023-08-08T15:17:33;2.03;;;1.60;;
11135;SDS011;5622;50.840;4.948;2023-08-08T15:20:00;2.63;;;1.90;;
11135;SDS011;5622;50.840;4.948;2023-08-08T15:22:28;3.43;;;1.93;;
11135;SDS011;5622;50.840;4.948;2023-08-08T15:24:55;3.33;;;1.53;;
11135;SDS011;5622;50.840;4.948;2023-08-08T15:27:24;4.07;;;1.70;;
11135;SDS011;5622;50.840;4.948;2023-08-08T15:29:51;2.23;;;1.50;;
11135;SDS011;5622;50.840;4.948;2023-08-08T15:32:18;2.20;;;1.63;;
11135;SDS011;5622;50.840;4.948;2023-08-08T15:34:46;3.87;;;1.63;;
11135;SDS011;5622;50.840;4.948;2023-08-08T15:37:13;2.53;;;1.73;;
11135;SDS011;5622;50.840;4.948;2023-08-08T15:39:40;2.90;;;1.90;;
11135;SDS011;5622;50.840;4.948;2023-08-08T15:42:07;2.27;;;1.73;;
11135;SDS011;5622;50.840;4.948;2023-08-08T15:44:38;2.90;;;1.50;;
11135;SDS011;5622;50.840;4.948;2023-08-08T15:47:07;3.67;;;2.10;;
11135;SDS011;5622;50.840;4.948;2023-08-08T15:49:34;4.27;;;1.70;;
11135;SDS011;5622;50.840;4.948;2023-08-08T15:52:02;2.00;;;1.60;;
11135;SDS011;5622;50.840;4.948;2023-08-08T15:54:35;3.13;;;1.60;;
11135;SDS011;5622;50.840;4.948;2023-08-08T15:57:04;4.17;;;1.90;;
11135;SDS011;5622;50.840;4.948;2023-08-08T15:59:33;3.40;;;2.10;;
11135;SDS011;5622;50.840;4.948;2023-08-08T16:02:03;3.73;;;1.70;;
11135;SDS011;5622;50.840;4.948;2023-08-08T16:04:30;1.70;;;1.57;;
11135;SDS011;5622;50.840;4.948;2023-08-08T16:06:59;1.67;;;1.57;;
11135;SDS011;5622;50.840;4.948;2023-08-08T16:09:30;2.97;;;1.70;;
11135;SDS011;5622;50.840;4.948;2023-08-08T16:11:58;2.47;;;2.17;;
11135;SDS011;5622;50.840;4.948;2023-08-08T16:14:25;1.50;;;1.30;;
11135;SDS011;5622;50.840;4.948;2023-08-08T16:16:52;3.83;;;1.67;;
11135;SDS011;5622;50.840;4.948;2023-08-08T16:19:21;5.67;;;1.73;;
11135;SDS011;5622;50.840;4.948;2023-08-08T16:21:48;3.33;;;1.87;;
11135;SDS011;5622;50.840;4.948;2023-08-08T16:24:15;3.40;;;1.70;;
11135;SDS011;5622;50.840;4.948;2023-08-08T16:26:42;1.80;;;1.60;;
11135;SDS011;5622;50.840;4.948;2023-08-08T16:29:09;6.60;;;1.90;;
11135;SDS011;5622;50.840;4.948;2023-08-08T16:31:36;5.27;;;1.77;;
11135;SDS011;5622;50.840;4.948;2023-08-08T16:34:04;2.00;;;1.80;;
11135;SDS011;5622;50.840;4.948;2023-08-08T16:36:33;2.07;;;1.40;;
11135;SDS011;5622;50.840;4.948;2023-08-08T16:39:00;2.77;;;1.63;;
11135;SDS011;5622;50.840;4.948;2023-08-08T16:41:28;4.40;;;2.10;;
11135;SDS011;5622;50.840;4.948;2023-08-08T16:43:59;1.83;;;1.70;;
11135;SDS011;5622;50.840;4.948;2023-08-08T16:46:28;3.13;;;1.90;;
11135;SDS011;5622;50.840;4.948;2023-08-08T16:48:55;1.97;;;1.70;;
11135;SDS011;5622;50.840;4.948;2023-08-08T16:51:22;2.33;;;1.63;;
11135;SDS011;5622;50.840;4.948;2023-08-08T16:53:51;1.53;;;1.43;;
11135;SDS011;5622;50.840;4.948;2023-08-08T16:56:18;1.77;;;1.67;;
11135;SDS011;5622;50.840;4.948;2023-08-08T16:58:46;2.13;;;1.67;;
11135;SDS011;5622;50.840;4.948;2023-08-08T17:01:13;1.90;;;1.70;;
11135;SDS011;5622;50.840;4.948;2023-08-08T17:03:40;1.73;;;1.50;;
11135;SDS011;5622;50.840;4.948;2023-08-08T17:06:07;1.63;;;1.53;;
11135;SDS011;5622;50.840;4.948;2023-08-08T17:08:34;3.00;;;1.70;;
11135;SDS011;5622;50.840;4.948;2023-08-08T17:11:03;1.50;;;1.30;;
11135;SDS011;5622;50.840;4.948;2023-08-08T17:13:30;2.23;;;1.40;;
11135;SDS011;5622;50.840;4.948;2023-08-08T17:15:58;1.50;;;1.40;;
11135;SDS011;5622;50.840;4.948;2023-08-08T17:18:25;2.00;;;1.43;;
11135;SDS011;5622;50.840;4.948;2023-08-08T17:20:52;2.43;;;1.90;;
11135;SDS011;5622;50.840;4.948;2023-08-08T17:23:20;3.80;;;2.27;;
11135;SDS011;5622;50.840;4.948;2023-08-08T17:25:48;2.47;;;1.70;;
11135;SDS011;5622;50.840;4.948;2023-08-08T17:28:17;1.63;;;1.53;;
11135;SDS011;5622;50.840;4.948;2023-08-08T17:30:44;3.60;;;1.80;;
11135;SDS011;5622;50.840;4.948;2023-08-08T17:33:11;2.00;;;1.80;;
11135;SDS011;5622;50.840;4.948;2023-08-08T17:35:38;1.80;;;1.70;;
11135;SDS011;5622;50.840;4.948;2023-08-08T17:38:05;2.13;;;1.97;;
11135;SDS011;5622;50.840;4.948;2023-08-08T17:40:32;4.87;;;2.30;;
11135;SDS011;5622;50.840;4.948;2023-08-08T17:42:59;1.70;;;1.60;;
11135;SDS011;5622;50.840;4.948;2023-08-08T17:45:28;3.67;;;2.07;;
11135;SDS011;5622;50.840;4.948;2023-08-08T17:47:55;3.10;;;2.10;;
11135;SDS011;5622;50.840;4.948;2023-08-08T17:50:22;2.20;;;1.90;;
11135;SDS011;5622;50.840;4.948;2023-08-08T17:52:49;2.47;;;2.27;;
11135;SDS011;5622;50.840;4.948;2023-08-08T17:55:16;3.70;;;2.77;;
11135;SDS011;5622;50.840;4.948;2023-08-08T17:57:44;3.07;;;2.27;;
11135;SDS011;5622;50.840;4.948;2023-08-08T18:00:11;4.13;;;2.30;;
11135;SDS011;5622;50.840;4.948;2023-08-08T18:02:40;3.50;;;2.60;;
11135;SDS011;5622;50.840;4.948;2023-08-08T18:05:07;4.13;;;2.30;;
11135;SDS011;5622;50.840;4.948;2023-08-08T18:07:35;3.90;;;2.50;;
11135;SDS011;5622;50.840;4.948;2023-08-08T18:10:02;3.00;;;2.17;;
11135;SDS011;5622;50.840;4.948;2023-08-08T18:12:30;4.60;;;2.50;;
11135;SDS011;5622;50.840;4.948;2023-08-08T18:14:57;3.10;;;2.27;;
11135;SDS011;5622;50.840;4.948;2023-08-08T18:17:24;3.67;;;2.40;;
11135;SDS011;5622;50.840;4.948;2023-08-08T18:19:52;3.93;;;2.50;;
11135;SDS011;5622;50.840;4.948;2023-08-08T18:22:23;4.50;;;2.47;;
11135;SDS011;5622;50.840;4.948;2023-08-08T18:24:50;2.50;;;2.30;;
11135;SDS011;5622;50.840;4.948;2023-08-08T18:27:17;4.13;;;2.47;;
11135;SDS011;5622;50.840;4.948;2023-08-08T18:29:45;3.00;;;2.70;;
11135;SDS011;5622;50.840;4.948;2023-08-08T18:32:12;4.07;;;2.73;;
11135;SDS011;5622;50.840;4.948;2023-08-08T18:34:40;2.90;;;2.53;;
11135;SDS011;5622;50.840;4.948;2023-08-08T18:37:09;3.17;;;2.23;;
11135;SDS011;5622;50.840;4.948;2023-08-08T18:39:36;2.90;;;2.40;;
11135;SDS011;5622;50.840;4.948;2023-08-08T18:42:03;3.37;;;2.40;;
11135;SDS011;5622;50.840;4.948;2023-08-08T18:44:31;2.60;;;2.33;;
11135;SDS011;5622;50.840;4.948;2023-08-08T18:46:58;3.40;;;2.30;;
11135;SDS011;5622;50.840;4.948;2023-08-08T18:49:25;2.90;;;2.10;;
11135;SDS011;5622;50.840;4.948;2023-08-08T18:51:52;2.93;;;2.13;;
11135;SDS011;5622;50.840;4.948;2023-08-08T18:54:20;3.03;;;2.17;;
11135;SDS011;5622;50.840;4.948;2023-08-08T18:56:48;4.77;;;2.40;;
11135;SDS011;5622;50.840;4.948;2023-08-08T18:59:15;2.80;;;2.20;;
11135;SDS011;5622;50.840;4.948;2023-08-08T19:01:42;3.37;;;1.93;;
11135;SDS011;5622;50.840;4.948;2023-08-08T19:04:09;2.93;;;2.13;;
11135;SDS011;5622;50.840;4.948;2023-08-08T19:06:36;2.87;;;2.60;;
11135;SDS011;5622;50.840;4.948;2023-08-08T19:09:03;5.73;;;3.10;;
11135;SDS011;5622;50.840;4.948;2023-08-08T19:11:35;4.67;;;3.03;;
11135;SDS011;5622;50.840;4.948;2023-08-08T19:14:02;4.00;;;3.37;;
11135;SDS011;5622;50.840;4.948;2023-08-08T19:16:30;6.37;;;3.50;;
11135;SDS011;5622;50.840;4.948;2023-08-08T19:19:00;4.40;;;3.40;;
11135;SDS011;5622;50.840;4.948;2023-08-08T19:21:28;6.90;;;3.13;;
11135;SDS011;5622;50.840;4.948;2023-08-08T19:23:55;4.47;;;2.60;;
11135;SDS011;5622;50.840;4.948;2023-08-08T19:26:22;3.60;;;2.30;;
11135;SDS011;5622;50.840;4.948;2023-08-08T19:28:51;3.10;;;2.80;;
11135;SDS011;5622;50.840;4.948;2023-08-08T19:31:18;4.40;;;3.23;;
11135;SDS011;5622;50.840;4.948;2023-08-08T19:33:45;4.10;;;3.47;;
11135;SDS011;5622;50.840;4.948;2023-08-08T19:36:12;5.83;;;3.53;;
11135;SDS011;5622;50.840;4.948;2023-08-08T19:38:39;6.20;;;3.70;;
11135;SDS011;5622;50.840;4.948;2023-08-08T19:41:06;4.00;;;2.83;;
11135;SDS011;5622;50.840;4.948;2023-08-08T19:43:34;3.17;;;2.80;;
11135;SDS011;5622;50.840;4.948;2023-08-08T19:46:02;3.63;;;2.80;;
11135;SDS011;5622;50.840;4.948;2023-08-08T19:48:29;2.93;;;2.40;;
11135;SDS011;5622;50.840;4.948;2023-08-08T19:50:56;2.63;;;2.37;;
11135;SDS011;5622;50.840;4.948;2023-08-08T19:53:23;6.53;;;2.50;;
11135;SDS011;5622;50.840;4.948;2023-08-08T19:55:51;7.30;;;2.83;;
11135;SDS011;5622;50.840;4.948;2023-08-08T19:58:22;4.63;;;2.60;;
11135;SDS011;5622;50.840;4.948;2023-08-08T20:00:50;3.30;;;2.63;;
11135;SDS011;5622;50.840;4.948;2023-08-08T20:03:19;4.73;;;2.40;;
11135;SDS011;5622;50.840;4.948;2023-08-08T20:05:46;3.63;;;2.73;;
11135;SDS011;5622;50.840;4.948;2023-08-08T20:08:13;5.00;;;2.33;;
11135;SDS011;5622;50.840;4.948;2023-08-08T20:10:40;3.20;;;2.70;;
11135;SDS011;5622;50.840;4.948;2023-08-08T20:13:07;3.07;;;2.40;;
11135;SDS011;5622;50.840;4.948;2023-08-08T20:15:35;5.77;;;3.10;;
11135;SDS011;5622;50.840;4.948;2023-08-08T20:18:03;4.17;;;2.70;;
11135;SDS011;5622;50.840;4.948;2023-08-08T20:20:31;3.97;;;2.60;;
11135;SDS011;5622;50.840;4.948;2023-08-08T20:22:59;4.47;;;3.20;;
11135;SDS011;5622;50.840;4.948;2023-08-08T20:25:26;4.37;;;3.20;;
11135;SDS011;5622;50.840;4.948;2023-08-08T20:27:53;4.77;;;2.90;;
11135;SDS011;5622;50.840;4.948;2023-08-08T20:30:20;4.83;;;2.90;;
11135;SDS011;5622;50.840;4.948;2023-08-08T20:32:47;3.97;;;3.10;;
11135;SDS011;5622;50.840;4.948;2023-08-08T20:35:14;7.17;;;5.17;;
11135;SDS011;5622;50.840;4.948;2023-08-08T20:37:43;5.57;;;3.60;;
11135;SDS011;5622;50.840;4.948;2023-08-08T20:40:10;4.00;;;3.30;;
11135;SDS011;5622;50.840;4.948;2023-08-08T20:42:37;5.53;;;3.87;;
11135;SDS011;5622;50.840;4.948;2023-08-08T20:45:05;4.37;;;3.50;;
11135;SDS011;5622;50.840;4.948;2023-08-08T20:47:33;6.27;;;3.87;;
11135;SDS011;5622;50.840;4.948;2023-08-08T20:50:00;5.67;;;3.83;;
11135;SDS011;5622;50.840;4.948;2023-08-08T20:52:27;3.97;;;3.60;;
11135;SDS011;5622;50.840;4.948;2023-08-08T20:54:56;3.50;;;3.10;;
11135;SDS011;5622;50.840;4.948;2023-08-08T20:57:23;4.03;;;3.47;;
11135;SDS011;5622;50.840;4.948;2023-08-08T20:59:50;4.03;;;3.43;;
11135;SDS011;5622;50.840;4.948;2023-08-08T21:02:17;4.70;;;3.50;;
11135;SDS011;5622;50.840;4.948;2023-08-08T21:04:45;5.40;;;3.27;;
11135;SDS011;5622;50.840;4.948;2023-08-08T21:07:12;5.10;;;4.00;;
11135;SDS011;5622;50.840;4.948;2023-08-08T21:09:40;5.23;;;3.50;;
11135;SDS011;5622;50.840;4.948;2023-08-08T21:12:09;5.60;;;3.03;;
11135;SDS011;5622;50.840;4.948;2023-08-08T21:14:36;3.60;;;3.23;;
11135;SDS011;5622;50.840;4.948;2023-08-08T21:17:04;6.23;;;3.83;;
11135;SDS011;5622;50.840;4.948;2023-08-08T21:19:31;6.93;;;3.70;;
11135;SDS011;5622;50.840;4.948;2023-08-08T21:21:58;6.77;;;3.73;;
11135;SDS011;5622;50.840;4.948;2023-08-08T21:24:26;5.27;;;3.13;;
11135;SDS011;5622;50.840;4.948;2023-08-08T21:26:53;5.90;;;3.27;;
11135;SDS011;5622;50.840;4.948;2023-08-08T21:29:21;6.17;;;3.50;;
11135;SDS011;5622;50.840;4.948;2023-08-08T21:31:48;7.20;;;3.63;;
11135;SDS011;5622;50.840;4.948;2023-08-08T21:34:15;8.47;;;4.10;;